Airfield :
LOGIN :

Register | Disclaimer

   EN    FR    IT 

 










Legend :    VFR   Marginal VFR   IFR   Intensive IFR   Very Intensive IFR
Visi :
Ceiling :
>= 8 km
>= 3000ft
5 to 8 km
1000 to 3000 ft
1500m to 5 km
500 to 1000 ft
800 to 1500m
200 to 500 ft
< 800m
< 200 ft
Symbols :   Thunderstorms  Fog  Heavy snow  Heavy precipitations  Wind > 20 kt
SIGMETs :     Misc.  Thunderstorms  Icing  Turbulence  Mountain Waves  Volcanic Ashes







- Airport Elevation : 83 ft
- IATA code : LHR
- Download approach charts


EGLL - London Heathrow

CURRENT METAR :
  • 190550Z AUTO 36001KT 9999 NCD 09/08 Q1031

EXPIRED METARs :
  • 190520Z AUTO 01001KT 9999 NCD 09/07 Q1031
  • 190450Z AUTO 00000KT 9999 NCD 10/08 Q1031 NOSIG
  • 190420Z AUTO 31002KT 9999 NCD 10/08 Q1031 NOSIG
  • 190350Z AUTO 32001KT 9999 NCD 10/08 Q1031 NOSIG
  • 190320Z AUTO 34001KT 9999 NCD 10/07 Q1031

TAF TAF EGLL
Valid from the 19 at 06:00 until the 20 at 12:00 UTC


190453Z 1906/2012 VRB03KT 9999 FEW040
PROB30 1906/1908 9000
PROB30 2003/2008 7000
BECMG 2008/2011 10010KT
No reported NOTAMs for that airfield.



MET'MAP, your aeronautical weather chart ! - Copyright ORBIFLY December 2007 - Disclaimer

ORBIFLY MET'MAP TEAM :

Programming & Development : Alexandra Zaïnal
Concept & Development : Baudouin d'Aumeries
Co-Development & Prog : Marc-Olivier Méhu
Technical & hardware support : Manuel Goepfert

Contact : metmap@orbifly.com




SOURCES & CREDITS :

   NOAA